Time;durP1;ratioP1;P1;durP2;ratioP2;P2;SDS_P1;SDS_P2;PMS_P1;PMS_P2;Temp;Humidity;BMP_temperature;BMP_pressure;BME280_temperature;BME280_humidity;BME280_pressure;Samples;Min_cycle;Max_cycle;Signal;HPM_P1;HPM_P2
2022/08/30 00:01:04;;;;;;;0.20;0.20;;;;;;;;;;5056048;28;20388;-74
2022/08/30 00:03:35;;;;;;;0.17;0.17;;;;;;;;;;5073846;28;20082;-74
2022/08/30 00:06:01;;;;;;;0.20;0.20;;;;;;;;;;5056122;28;20081;-74
2022/08/30 00:08:27;;;;;;;0.68;0.68;;;;;;;;;;5074032;28;20418;-74
2022/08/30 00:10:52;;;;;;;0.30;0.30;;;;;;;;;;5073613;28;20522;-74
2022/08/30 00:13:18;;;;;;;7.25;0.68;;;;;;;;;;5073976;28;20044;-74
2022/08/30 00:15:44;;;;;;;0.20;0.20;;;;;;;;;;5073675;28;20067;-74
2022/08/30 00:18:10;;;;;;;0.20;0.20;;;;;;;;;;5073709;28;20111;-74
2022/08/30 00:20:35;;;;;;;0.25;0.25;;;;;;;;;;5073435;28;20539;-76
2022/08/30 00:23:01;;;;;;;0.22;0.22;;;;;;;;;;5073544;28;20025;-75
2022/08/30 00:25:27;;;;;;;0.30;0.30;;;;;;;;;;5073363;28;20082;-74
2022/08/30 00:27:53;;;;;;;0.20;0.20;;;;;;;;;;5073427;28;20029;-75
2022/08/30 00:30:19;;;;;;;0.30;0.30;;;;;;;;;;5073611;28;20028;-74
2022/08/30 00:32:44;;;;;;;0.40;0.40;;;;;;;;;;5055501;28;20594;-74
2022/08/30 00:35:12;;;;;;;0.20;0.20;;;;;;;;;;5072908;28;20048;-74
2022/08/30 00:37:38;;;;;;;0.45;0.45;;;;;;;;;;5073251;28;20495;-74
2022/08/30 00:40:04;;;;;;;0.32;0.32;;;;;;;;;;5073043;28;20040;-74
2022/08/30 00:42:30;;;;;;;0.30;0.30;;;;;;;;;;5073408;28;20063;-74
2022/08/30 00:44:56;;;;;;;0.20;0.20;;;;;;;;;;5073081;28;20450;-74
2022/08/30 00:47:21;;;;;;;0.40;0.40;;;;;;;;;;5073437;28;20206;-73
2022/08/30 00:49:48;;;;;;;7.40;1.17;;;;;;;;;;5073130;28;20431;-75
2022/08/30 00:52:15;;;;;;;0.35;0.35;;;;;;;;;;5073268;28;20060;-75
2022/08/30 00:54:43;;;;;;;0.20;0.20;;;;;;;;;;5073085;28;20032;-74
2022/08/30 00:57:09;;;;;;;0.35;0.35;;;;;;;;;;5073147;28;20021;-74
2022/08/30 00:59:35;;;;;;;0.30;0.30;;;;;;;;;;5073580;28;20020;-74
2022/08/30 01:02:01;;;;;;;0.20;0.20;;;;;;;;;;5055134;28;20027;-74
2022/08/30 01:04:28;;;;;;;0.60;0.60;;;;;;;;;;5055545;28;20031;-75
2022/08/30 01:06:53;;;;;;;0.20;0.20;;;;;;;;;;5072775;28;20040;-73
2022/08/30 01:09:19;;;;;;;0.20;0.20;;;;;;;;;;5072865;28;20028;-74
2022/08/30 01:11:45;;;;;;;1.02;0.85;;;;;;;;;;5073014;28;20024;-74
2022/08/30 01:14:12;;;;;;;0.88;0.88;;;;;;;;;;5072928;28;20391;-74
2022/08/30 01:16:38;;;;;;;0.20;0.20;;;;;;;;;;5073050;28;20024;-74
2022/08/30 01:19:07;;;;;;;0.35;0.35;;;;;;;;;;5073111;28;20111;-74
2022/08/30 01:21:44;;;;;;;0.30;0.30;;;;;;;;;;5072997;28;20024;-74
2022/08/30 01:24:10;;;;;;;0.30;0.30;;;;;;;;;;5073246;28;20032;-74
2022/08/30 01:26:36;;;;;;;2.20;1.65;;;;;;;;;;5072962;28;20496;-74
2022/08/30 01:29:05;;;;;;;2.92;2.65;;;;;;;;;;5072884;28;20047;-74
2022/08/30 01:31:31;;;;;;;0.20;0.20;;;;;;;;;;5072673;28;20064;-74
2022/08/30 01:33:57;;;;;;;0.20;0.20;;;;;;;;;;5072867;28;20033;-74
2022/08/30 01:36:22;;;;;;;0.40;0.40;;;;;;;;;;5072614;28;20031;-74
2022/08/30 01:38:50;;;;;;;0.20;0.20;;;;;;;;;;5072822;28;20360;-75
2022/08/30 01:41:20;;;;;;;0.20;0.20;;;;;;;;;;5072391;28;20111;-75
2022/08/30 01:43:47;;;;;;;0.40;0.40;;;;;;;;;;5072354;28;20729;-75
2022/08/30 01:46:14;;;;;;;0.20;0.20;;;;;;;;;;5075764;28;20025;-75
2022/08/30 01:48:41;;;;;;;0.22;0.22;;;;;;;;;;5076538;28;20070;-75
2022/08/30 01:51:09;;;;;;;1.58;1.55;;;;;;;;;;5076379;28;20052;-74
2022/08/30 01:53:36;;;;;;;0.10;0.10;;;;;;;;;;5076748;28;20031;-74
2022/08/30 01:56:02;;;;;;;0.20;0.20;;;;;;;;;;5076955;28;20025;-74
2022/08/30 01:58:28;;;;;;;0.68;0.60;;;;;;;;;;5059396;28;20472;-74
2022/08/30 02:00:54;;;;;;;1.55;1.45;;;;;;;;;;5085087;28;20055;-74
2022/08/30 02:03:25;;;;;;;0.60;0.60;;;;;;;;;;5089789;28;20027;-75
2022/08/30 02:05:51;;;;;;;0.45;0.43;;;;;;;;;;5079875;28;20376;-74
2022/08/30 02:08:17;;;;;;;0.98;0.98;;;;;;;;;;5076472;28;20024;-74
2022/08/30 02:10:43;;;;;;;0.10;0.10;;;;;;;;;;5076548;28;20378;-74
2022/08/30 02:13:09;;;;;;;0.20;0.20;;;;;;;;;;5058218;28;20414;-74
2022/08/30 02:15:35;;;;;;;0.45;0.45;;;;;;;;;;5076109;28;20081;-74
2022/08/30 02:18:01;;;;;;;0.30;0.30;;;;;;;;;;5075855;28;20063;-74
2022/08/30 02:20:26;;;;;;;0.22;0.22;;;;;;;;;;5075988;28;20031;-74
2022/08/30 02:22:52;;;;;;;0.40;0.40;;;;;;;;;;5076297;28;20127;-74
2022/08/30 02:25:18;;;;;;;0.38;0.38;;;;;;;;;;5075703;28;20032;-74
2022/08/30 02:27:43;;;;;;;0.22;0.22;;;;;;;;;;5075680;28;20029;-73
2022/08/30 02:30:10;;;;;;;0.20;0.20;;;;;;;;;;5075851;28;20021;-74
2022/08/30 02:32:35;;;;;;;0.73;0.73;;;;;;;;;;5075755;28;20083;-74
2022/08/30 02:35:01;;;;;;;0.20;0.20;;;;;;;;;;5075207;28;20419;-75
2022/08/30 02:37:27;;;;;;;0.50;0.50;;;;;;;;;;5076041;28;20471;-74
2022/08/30 02:39:52;;;;;;;0.77;0.50;;;;;;;;;;5074851;28;20028;-75
2022/08/30 02:42:18;;;;;;;0.22;0.22;;;;;;;;;;5073603;28;20020;-76
2022/08/30 02:44:44;;;;;;;0.20;0.20;;;;;;;;;;5073225;28;20028;-75
2022/08/30 02:47:09;;;;;;;1.02;0.90;;;;;;;;;;5073195;28;20032;-74
2022/08/30 02:49:35;;;;;;;0.75;0.75;;;;;;;;;;5073015;28;20045;-76
2022/08/30 02:52:03;;;;;;;0.52;0.52;;;;;;;;;;5073764;28;20028;-75
2022/08/30 02:54:31;;;;;;;0.20;0.20;;;;;;;;;;5074288;28;20025;-74
2022/08/30 02:56:58;;;;;;;0.20;0.20;;;;;;;;;;5074544;28;20376;-74
2022/08/30 02:59:23;;;;;;;0.47;0.40;;;;;;;;;;5075151;28;20476;-74
2022/08/30 03:01:49;;;;;;;0.88;0.75;;;;;;;;;;5073979;28;20112;-76
2022/08/30 03:04:14;;;;;;;0.20;0.20;;;;;;;;;;5051561;28;20033;-74
2022/08/30 03:06:40;;;;;;;0.38;0.35;;;;;;;;;;5051328;28;20037;-75
2022/08/30 03:09:06;;;;;;;13.52;0.57;;;;;;;;;;5033880;28;20033;-82
2022/08/30 03:11:32;;;;;;;0.20;0.20;;;;;;;;;;5051621;28;20032;-74
2022/08/30 03:13:58;;;;;;;0.10;0.10;;;;;;;;;;5051494;28;20112;-74
2022/08/30 03:16:23;;;;;;;0.20;0.20;;;;;;;;;;5051087;28;20021;-74
2022/08/30 03:18:49;;;;;;;0.57;0.57;;;;;;;;;;5033035;28;20060;-75
2022/08/30 03:21:15;;;;;;;3.60;2.75;;;;;;;;;;5051526;28;20032;-74
2022/08/30 03:23:41;;;;;;;0.85;0.85;;;;;;;;;;5051132;28;20028;-75
2022/08/30 03:26:07;;;;;;;0.15;0.15;;;;;;;;;;5051445;28;20049;-73
2022/08/30 03:28:33;;;;;;;0.68;0.60;;;;;;;;;;5050836;28;20112;-76
2022/08/30 03:30:59;;;;;;;0.13;0.13;;;;;;;;;;5050873;28;20021;-74
2022/08/30 03:33:25;;;;;;;0.20;0.20;;;;;;;;;;5050768;28;20052;-74
2022/08/30 03:35:51;;;;;;;0.47;0.45;;;;;;;;;;5051154;28;20025;-74
2022/08/30 03:38:16;;;;;;;0.52;0.52;;;;;;;;;;5050965;28;20028;-74
2022/08/30 03:40:42;;;;;;;0.20;0.20;;;;;;;;;;5050729;28;20103;-74
2022/08/30 03:43:08;;;;;;;0.75;0.70;;;;;;;;;;5050549;28;20029;-74
2022/08/30 03:45:34;;;;;;;0.20;0.20;;;;;;;;;;5050705;28;20039;-75
2022/08/30 03:48:01;;;;;;;0.17;0.17;;;;;;;;;;5048851;28;20100;-75
2022/08/30 03:50:27;;;;;;;8.93;2.92;;;;;;;;;;5035640;28;20044;-76
2022/08/30 03:52:53;;;;;;;0.20;0.20;;;;;;;;;;5052854;28;20020;-73
2022/08/30 03:55:19;;;;;;;0.38;0.38;;;;;;;;;;5070632;28;20479;-77
2022/08/30 03:57:45;;;;;;;0.20;0.20;;;;;;;;;;5070734;28;20539;-75
2022/08/30 04:00:11;;;;;;;0.35;0.30;;;;;;;;;;5070521;28;20063;-74
2022/08/30 04:02:37;;;;;;;0.20;0.20;;;;;;;;;;5069991;28;20119;-80
2022/08/30 04:05:02;;;;;;;0.63;0.52;;;;;;;;;;5070613;28;20127;-74
2022/08/30 04:07:28;;;;;;;0.55;0.55;;;;;;;;;;5070392;28;20028;-74
2022/08/30 04:09:53;;;;;;;0.20;0.20;;;;;;;;;;5069288;28;20013;-73
2022/08/30 04:12:19;;;;;;;1.38;1.38;;;;;;;;;;5070344;28;20486;-74
2022/08/30 04:14:44;;;;;;;0.20;0.20;;;;;;;;;;5069778;28;20056;-76
2022/08/30 04:17:10;;;;;;;0.28;0.28;;;;;;;;;;5069543;28;20074;-76
2022/08/30 04:19:36;;;;;;;0.28;0.28;;;;;;;;;;5069977;28;20040;-76
2022/08/30 04:22:02;;;;;;;0.20;0.20;;;;;;;;;;5069740;28;20032;-74
2022/08/30 04:24:27;;;;;;;0.20;0.20;;;;;;;;;;5069787;28;20080;-75
2022/08/30 04:26:53;;;;;;;0.20;0.20;;;;;;;;;;5069841;28;20121;-73
2022/08/30 04:29:18;;;;;;;0.20;0.20;;;;;;;;;;5069457;28;20024;-73
2022/08/30 04:31:44;;;;;;;0.20;0.20;;;;;;;;;;5069669;28;20081;-73
2022/08/30 04:34:10;;;;;;;0.20;0.20;;;;;;;;;;5069189;28;20097;-74
2022/08/30 04:36:36;;;;;;;0.20;0.20;;;;;;;;;;5069222;28;20033;-75
2022/08/30 04:39:02;;;;;;;0.50;0.50;;;;;;;;;;5051543;28;20123;-76
2022/08/30 04:41:28;;;;;;;0.20;0.20;;;;;;;;;;5069630;28;20098;-75
2022/08/30 04:43:53;;;;;;;0.30;0.30;;;;;;;;;;5069125;28;20024;-75
2022/08/30 04:46:19;;;;;;;0.20;0.20;;;;;;;;;;5069721;28;20067;-77
2022/08/30 04:48:45;;;;;;;1.42;1.38;;;;;;;;;;5069036;28;20036;-76
2022/08/30 04:51:12;;;;;;;0.20;0.20;;;;;;;;;;5069382;28;20029;-74
2022/08/30 04:53:39;;;;;;;0.20;0.20;;;;;;;;;;5069525;28;20372;-77
2022/08/30 04:56:15;;;;;;;0.30;0.30;;;;;;;;;;5068438;28;20036;-74
2022/08/30 04:58:41;;;;;;;0.25;0.25;;;;;;;;;;5067972;28;20024;-74
2022/08/30 05:01:10;;;;;;;0.30;0.30;;;;;;;;;;5068357;28;20115;-75
2022/08/30 05:03:36;;;;;;;0.30;0.30;;;;;;;;;;5068011;28;20032;-76
2022/08/30 05:06:02;;;;;;;0.20;0.20;;;;;;;;;;5068202;28;20032;-76
2022/08/30 05:08:28;;;;;;;0.20;0.20;;;;;;;;;;5067568;28;20082;-75
2022/08/30 05:10:53;;;;;;;0.20;0.20;;;;;;;;;;5069091;28;20112;-74
2022/08/30 05:13:20;;;;;;;0.20;0.20;;;;;;;;;;5069264;28;20085;-75
2022/08/30 05:15:46;;;;;;;0.25;0.25;;;;;;;;;;5069150;28;20486;-75
2022/08/30 05:18:12;;;;;;;0.20;0.20;;;;;;;;;;5069466;28;20111;-73
2022/08/30 05:20:39;;;;;;;0.20;0.20;;;;;;;;;;5053597;28;20094;-74
2022/08/30 05:23:04;;;;;;;0.20;0.20;;;;;;;;;;5073516;28;20472;-73
2022/08/30 05:25:35;;;;;;;0.65;0.65;;;;;;;;;;5073182;28;20036;-74
2022/08/30 05:28:00;;;;;;;0.20;0.20;;;;;;;;;;5073371;28;20044;-76
2022/08/30 05:30:27;;;;;;;0.20;0.20;;;;;;;;;;5072579;28;20029;-76
2022/08/30 05:32:53;;;;;;;0.20;0.20;;;;;;;;;;5073246;28;20039;-74
2022/08/30 05:35:19;;;;;;;0.20;0.20;;;;;;;;;;5073087;28;20028;-78
2022/08/30 05:37:45;;;;;;;0.20;0.20;;;;;;;;;;5073497;28;20498;-74
2022/08/30 05:40:12;;;;;;;0.20;0.20;;;;;;;;;;5054768;28;20044;-75
2022/08/30 05:42:41;;;;;;;0.30;0.30;;;;;;;;;;5072429;28;20392;-74
2022/08/30 05:45:08;;;;;;;0.20;0.20;;;;;;;;;;5072210;28;20468;-74
2022/08/30 05:47:33;;;;;;;0.50;0.50;;;;;;;;;;5072909;28;20028;-74
2022/08/30 05:49:59;;;;;;;0.73;0.73;;;;;;;;;;5072992;28;20058;-75
2022/08/30 05:52:25;;;;;;;0.22;0.22;;;;;;;;;;5072663;28;20043;-74
2022/08/30 05:54:52;;;;;;;0.20;0.20;;;;;;;;;;5072722;28;20028;-75
2022/08/30 05:57:18;;;;;;;0.20;0.20;;;;;;;;;;5073071;28;20025;-73
2022/08/30 05:59:44;;;;;;;0.90;0.90;;;;;;;;;;5072433;28;20040;-76
2022/08/30 06:02:10;;;;;;;0.20;0.20;;;;;;;;;;5072691;28;20079;-74
2022/08/30 06:04:36;;;;;;;0.28;0.28;;;;;;;;;;5072287;28;20391;-73
2022/08/30 06:07:02;;;;;;;0.20;0.20;;;;;;;;;;5072216;28;20051;-74
2022/08/30 06:09:28;;;;;;;0.20;0.20;;;;;;;;;;5072267;28;20097;-74
2022/08/30 06:11:53;;;;;;;0.50;0.50;;;;;;;;;;5072258;28;20021;-73
2022/08/30 06:14:19;;;;;;;0.20;0.20;;;;;;;;;;5053770;28;20380;-74
2022/08/30 06:16:45;;;;;;;0.20;0.20;;;;;;;;;;5072329;28;20058;-74
2022/08/30 06:19:10;;;;;;;0.20;0.20;;;;;;;;;;5072245;28;20036;-81
2022/08/30 06:21:38;;;;;;;0.20;0.20;;;;;;;;;;5054750;28;20028;-74
2022/08/30 06:24:04;;;;;;;0.25;0.25;;;;;;;;;;5072199;28;20040;-74
2022/08/30 06:26:30;;;;;;;0.20;0.20;;;;;;;;;;5071675;28;20194;-75
2022/08/30 06:28:56;;;;;;;0.20;0.20;;;;;;;;;;5072427;28;20507;-76
2022/08/30 06:31:22;;;;;;;3.40;0.63;;;;;;;;;;5064007;28;20059;-82
2022/08/30 06:33:48;;;;;;;0.20;0.20;;;;;;;;;;5085698;28;20020;-76
2022/08/30 06:36:16;;;;;;;0.30;0.30;;;;;;;;;;5082917;28;20031;-75
2022/08/30 06:38:44;;;;;;;0.20;0.20;;;;;;;;;;5072922;28;20021;-75
2022/08/30 06:41:14;;;;;;;0.20;0.20;;;;;;;;;;5072866;28;20370;-75
2022/08/30 06:43:39;;;;;;;1.25;1.25;;;;;;;;;;5072845;28;20028;-74
2022/08/30 06:46:07;;;;;;;0.30;0.30;;;;;;;;;;5072101;28;20400;-74
2022/08/30 06:48:32;;;;;;;0.40;0.40;;;;;;;;;;5071537;28;20035;-74
2022/08/30 06:50:58;;;;;;;0.20;0.20;;;;;;;;;;5072737;28;20028;-73
2022/08/30 06:53:24;;;;;;;0.40;0.40;;;;;;;;;;5072341;28;20460;-75
2022/08/30 06:55:54;;;;;;;0.65;0.65;;;;;;;;;;5072041;28;20056;-74
2022/08/30 06:58:19;;;;;;;0.30;0.30;;;;;;;;;;5072522;28;20067;-74
2022/08/30 07:00:45;;;;;;;0.20;0.20;;;;;;;;;;5071482;28;20056;-76
2022/08/30 07:03:11;;;;;;;0.40;0.40;;;;;;;;;;5072384;28;20043;-73
2022/08/30 07:05:36;;;;;;;0.40;0.40;;;;;;;;;;5072181;28;20025;-74
2022/08/30 07:08:02;;;;;;;0.30;0.30;;;;;;;;;;5072066;28;20491;-74
2022/08/30 07:10:27;;;;;;;0.20;0.20;;;;;;;;;;5072082;28;20455;-74
2022/08/30 07:12:53;;;;;;;0.30;0.30;;;;;;;;;;5071871;28;20387;-73
2022/08/30 07:15:21;;;;;;;0.30;0.30;;;;;;;;;;5072145;28;20048;-74
2022/08/30 07:20:32;;;;;;;0.50;0.50;;;;;;;;;;5071506;28;20025;-75
2022/08/30 07:22:57;;;;;;;0.30;0.30;;;;;;;;;;5071780;28;20031;-75
2022/08/30 07:25:23;;;;;;;0.30;0.30;;;;;;;;;;5071867;28;20490;-77
2022/08/30 07:27:50;;;;;;;3.53;3.33;;;;;;;;;;5071035;28;20028;-77
2022/08/30 07:30:16;;;;;;;0.40;0.40;;;;;;;;;;5071592;28;20039;-74
2022/08/30 07:32:42;;;;;;;0.40;0.40;;;;;;;;;;5071542;28;20380;-73
2022/08/30 07:35:08;;;;;;;0.40;0.40;;;;;;;;;;5071465;28;20968;-73
2022/08/30 07:37:33;;;;;;;0.32;0.32;;;;;;;;;;5070965;28;20044;-73
2022/08/30 07:39:59;;;;;;;0.30;0.30;;;;;;;;;;5070816;28;20029;-75
2022/08/30 07:42:24;;;;;;;0.40;0.40;;;;;;;;;;5070690;28;20068;-74
2022/08/30 07:44:50;;;;;;;0.40;0.40;;;;;;;;;;5071043;28;20052;-74
2022/08/30 07:47:15;;;;;;;0.50;0.50;;;;;;;;;;5052885;28;20410;-75
2022/08/30 07:49:41;;;;;;;0.40;0.40;;;;;;;;;;5071156;28;20017;-74
2022/08/30 07:52:08;;;;;;;0.40;0.40;;;;;;;;;;5036115;28;20040;-74
2022/08/30 07:54:34;;;;;;;0.30;0.30;;;;;;;;;;5071112;28;20039;-75
2022/08/30 07:56:59;;;;;;;0.30;0.30;;;;;;;;;;5070567;28;20028;-75
2022/08/30 07:59:25;;;;;;;0.40;0.40;;;;;;;;;;5070531;28;20066;-75
2022/08/30 08:01:50;;;;;;;6.13;3.60;;;;;;;;;;5070207;28;20518;-74
2022/08/30 08:04:15;;;;;;;0.50;0.50;;;;;;;;;;5070163;28;20086;-80
2022/08/30 08:06:41;;;;;;;0.40;0.40;;;;;;;;;;5069763;28;20044;-74
2022/08/30 08:09:07;;;;;;;0.40;0.40;;;;;;;;;;5070097;28;20021;-73
2022/08/30 08:11:33;;;;;;;0.40;0.40;;;;;;;;;;5069982;28;20020;-75
2022/08/30 08:13:59;;;;;;;0.40;0.40;;;;;;;;;;5070091;28;20031;-74
2022/08/30 08:16:25;;;;;;;0.60;0.60;;;;;;;;;;5070114;28;20020;-74
2022/08/30 08:18:51;;;;;;;0.75;0.75;;;;;;;;;;5070139;28;20052;-74
2022/08/30 08:21:17;;;;;;;0.40;0.40;;;;;;;;;;5070205;28;20037;-74
2022/08/30 08:23:42;;;;;;;0.60;0.60;;;;;;;;;;5069978;28;20100;-75
2022/08/30 08:26:08;;;;;;;0.30;0.30;;;;;;;;;;5069468;28;20189;-74
2022/08/30 08:28:33;;;;;;;0.40;0.40;;;;;;;;;;5070258;28;20036;-74
2022/08/30 08:30:58;;;;;;;0.40;0.40;;;;;;;;;;5069796;28;20073;-80
2022/08/30 08:33:24;;;;;;;0.40;0.40;;;;;;;;;;5069982;28;20502;-75
2022/08/30 08:35:49;;;;;;;6.35;2.10;;;;;;;;;;5069862;28;20115;-74
2022/08/30 08:38:14;;;;;;;0.63;0.52;;;;;;;;;;5069650;28;20134;-81
2022/08/30 08:41:00;;;;;;;0.52;0.52;;;;;;;;;;5069701;28;20047;-74
2022/08/30 08:43:26;;;;;;;1.60;0.90;;;;;;;;;;5052539;28;20060;-74
2022/08/30 08:46:10;;;;;;;0.30;0.30;;;;;;;;;;5069860;28;20074;-74
2022/08/30 08:48:40;;;;;;;0.60;0.60;;;;;;;;;;5069343;28;20104;-74
2022/08/30 08:53:59;;;;;;;0.40;0.40;;;;;;;;;;5070171;28;20032;-76
2022/08/30 08:56:25;;;;;;;0.73;0.73;;;;;;;;;;5069442;28;20025;-74
2022/08/30 08:58:52;;;;;;;0.80;0.80;;;;;;;;;;5069408;28;20027;-74
2022/08/30 09:01:20;;;;;;;0.50;0.50;;;;;;;;;;5057799;28;20110;-74
2022/08/30 09:03:45;;;;;;;0.40;0.40;;;;;;;;;;5049215;28;20037;-76
2022/08/30 09:06:20;;;;;;;0.40;0.40;;;;;;;;;;5066051;28;20039;-76
2022/08/30 09:08:46;;;;;;;0.40;0.40;;;;;;;;;;5067439;28;20513;-80
2022/08/30 09:11:15;;;;;;;0.30;0.30;;;;;;;;;;5049440;28;20028;-75
2022/08/30 09:13:41;;;;;;;0.40;0.40;;;;;;;;;;5067584;28;20120;-74
2022/08/30 09:16:06;;;;;;;0.30;0.30;;;;;;;;;;5066863;28;20127;-74
2022/08/30 09:18:43;;;;;;;0.55;0.55;;;;;;;;;;5066953;28;20448;-74
2022/08/30 09:21:09;;;;;;;0.63;0.63;;;;;;;;;;5067220;28;20116;-75
2022/08/30 09:23:34;;;;;;;0.43;0.43;;;;;;;;;;5067023;28;20107;-74
2022/08/30 09:26:04;;;;;;;2.00;0.90;;;;;;;;;;5066884;28;20025;-74
2022/08/30 09:28:32;;;;;;;0.57;0.57;;;;;;;;;;5066469;28;20460;-75
2022/08/30 09:31:00;;;;;;;0.40;0.40;;;;;;;;;;5067145;28;20036;-75
2022/08/30 09:33:26;;;;;;;1.90;1.10;;;;;;;;;;5066844;28;20562;-80
2022/08/30 09:35:51;;;;;;;4.70;1.10;;;;;;;;;;5067170;28;20036;-81
2022/08/30 09:38:19;;;;;;;2.45;1.77;;;;;;;;;;5067330;28;20090;-75
2022/08/30 09:40:46;;;;;;;2.38;1.35;;;;;;;;;;5065987;28;20058;-75
2022/08/30 09:43:17;;;;;;;1.95;1.60;;;;;;;;;;5066999;28;20154;-74
2022/08/30 09:45:48;;;;;;;0.40;0.40;;;;;;;;;;5066699;28;20099;-76
2022/08/30 09:48:27;;;;;;;3.63;1.67;;;;;;;;;;5067018;28;20369;-75
2022/08/30 09:51:11;;;;;;;3.45;0.95;;;;;;;;;;5067080;28;20578;-76
2022/08/30 09:53:54;;;;;;;2.50;1.17;;;;;;;;;;5066695;28;20042;-79
2022/08/30 09:56:28;;;;;;;2.33;1.30;;;;;;;;;;5066788;28;20036;-76
2022/08/30 09:59:01;;;;;;;1.83;1.05;;;;;;;;;;5066866;28;20053;-75
2022/08/30 10:01:29;;;;;;;3.00;1.35;;;;;;;;;;5066966;28;20079;-76
2022/08/30 10:04:04;;;;;;;4.07;1.88;;;;;;;;;;5067046;28;20028;-74
2022/08/30 10:06:36;;;;;;;0.40;0.40;;;;;;;;;;5068306;28;20036;-73
2022/08/30 10:09:10;;;;;;;0.40;0.40;;;;;;;;;;5070572;28;20025;-79
2022/08/30 10:11:36;;;;;;;0.40;0.40;;;;;;;;;;5070398;28;20047;-81
2022/08/30 10:14:06;;;;;;;1.08;0.73;;;;;;;;;;5070484;28;20016;-76
2022/08/30 10:16:50;;;;;;;0.50;0.50;;;;;;;;;;5052132;28;20032;-75
2022/08/30 10:19:22;;;;;;;0.50;0.50;;;;;;;;;;5072259;28;20428;-74
2022/08/30 10:21:58;;;;;;;0.38;0.38;;;;;;;;;;5072154;28;20066;-74
2022/08/30 10:24:27;;;;;;;2.60;1.58;;;;;;;;;;5071889;28;20255;-74
2022/08/30 10:26:55;;;;;;;5.85;2.00;;;;;;;;;;5072247;28;20044;-81
2022/08/30 10:29:36;;;;;;;9.95;1.38;;;;;;;;;;5054133;28;20025;-74
2022/08/30 10:32:05;;;;;;;3.50;1.05;;;;;;;;;;5072176;28;20036;-76
2022/08/30 10:34:39;;;;;;;4.22;1.52;;;;;;;;;;5071784;28;20098;-78
2022/08/30 10:37:13;;;;;;;5.95;2.40;;;;;;;;;;5071835;28;20028;-74
2022/08/30 10:39:50;;;;;;;3.45;1.27;;;;;;;;;;5071759;28;20137;-73
2022/08/30 10:42:15;;;;;;;0.60;0.60;;;;;;;;;;5037605;28;20310;-73
2022/08/30 10:44:44;;;;;;;3.05;1.40;;;;;;;;;;5071766;28;20433;-72
2022/08/30 10:47:09;;;;;;;4.10;0.85;;;;;;;;;;5071901;28;20040;-73
2022/08/30 10:49:37;;;;;;;2.92;1.73;;;;;;;;;;5071927;28;20040;-74
2022/08/30 10:52:24;;;;;;;3.65;1.50;;;;;;;;;;5071852;28;20107;-74
2022/08/30 10:54:57;;;;;;;1.67;0.95;;;;;;;;;;5053700;28;20378;-74
2022/08/30 10:57:23;;;;;;;2.45;1.10;;;;;;;;;;5071815;28;20086;-75
2022/08/30 10:59:55;;;;;;;0.57;0.57;;;;;;;;;;5071638;28;20020;-74
2022/08/30 11:02:29;;;;;;;9.43;1.77;;;;;;;;;;5071741;28;20468;-75
2022/08/30 11:05:14;;;;;;;4.28;1.55;;;;;;;;;;5071631;28;20025;-74
2022/08/30 11:08:02;;;;;;;4.43;1.33;;;;;;;;;;5071349;28;20040;-74
2022/08/30 11:10:40;;;;;;;4.10;3.08;;;;;;;;;;5057212;28;20476;-75
2022/08/30 11:13:32;;;;;;;2.78;1.48;;;;;;;;;;5071448;28;20098;-80
2022/08/30 11:16:06;;;;;;;4.93;2.08;;;;;;;;;;5067245;28;20044;-75
2022/08/30 11:18:51;;;;;;;4.07;1.42;;;;;;;;;;5071145;28;20035;-75
2022/08/30 11:21:19;;;;;;;1.75;1.13;;;;;;;;;;5070461;28;20043;-80
2022/08/30 11:24:03;;;;;;;1.08;0.85;;;;;;;;;;5071311;28;20480;-74
2022/08/30 11:26:44;;;;;;;0.60;0.60;;;;;;;;;;5070663;28;20041;-75
2022/08/30 11:29:33;;;;;;;0.60;0.60;;;;;;;;;;5071451;28;20268;-74
2022/08/30 11:32:17;;;;;;;0.50;0.50;;;;;;;;;;5058301;28;20391;-75
2022/08/30 11:34:46;;;;;;;0.88;0.85;;;;;;;;;;5070902;28;20028;-73
2022/08/30 11:37:30;;;;;;;3.80;1.48;;;;;;;;;;5070935;28;20052;-73
2022/08/30 11:39:59;;;;;;;0.50;0.50;;;;;;;;;;5067396;28;20106;-75
2022/08/30 11:42:30;;;;;;;3.78;2.25;;;;;;;;;;5068252;28;20052;-75
2022/08/30 11:45:15;;;;;;;1.83;1.40;;;;;;;;;;5068580;28;20045;-77
2022/08/30 11:47:46;;;;;;;6.47;2.70;;;;;;;;;;5068725;28;20546;-80
2022/08/30 11:50:15;;;;;;;1.67;1.40;;;;;;;;;;5068277;28;20021;-75
2022/08/30 11:52:41;;;;;;;5.05;1.95;;;;;;;;;;5068092;28;20356;-83
2022/08/30 11:55:13;;;;;;;2.38;1.40;;;;;;;;;;5068658;28;20029;-75
2022/08/30 11:57:44;;;;;;;1.90;1.23;;;;;;;;;;5068317;28;20037;-77
2022/08/30 12:00:10;;;;;;;2.72;1.42;;;;;;;;;;5068817;28;20029;-75
2022/08/30 12:02:41;;;;;;;2.28;1.40;;;;;;;;;;5067736;28;20081;-75
2022/08/30 12:05:07;;;;;;;2.72;1.55;;;;;;;;;;5050326;28;20036;-75
2022/08/30 12:07:51;;;;;;;3.53;1.48;;;;;;;;;;5068103;28;20036;-77
2022/08/30 12:10:21;;;;;;;4.38;1.10;;;;;;;;;;5067827;28;20423;-76
2022/08/30 12:12:47;;;;;;;1.85;1.35;;;;;;;;;;5067897;28;20393;-76
2022/08/30 12:15:27;;;;;;;1.13;0.75;;;;;;;;;;5067928;28;20131;-74
2022/08/30 12:20:46;;;;;;;4.13;1.77;;;;;;;;;;5067707;28;20099;-75
2022/08/30 12:23:16;;;;;;;1.08;0.98;;;;;;;;;;5067720;28;20429;-75
2022/08/30 12:25:41;;;;;;;2.40;1.60;;;;;;;;;;5067332;28;20040;-76
2022/08/30 12:28:11;;;;;;;2.13;0.90;;;;;;;;;;5067885;28;20035;-74
2022/08/30 12:30:37;;;;;;;3.70;1.85;;;;;;;;;;5066422;28;20325;-76
2022/08/30 12:33:03;;;;;;;4.00;1.58;;;;;;;;;;5067474;28;20044;-81
2022/08/30 12:35:28;;;;;;;1.85;1.20;;;;;;;;;;5068002;28;20016;-74
2022/08/30 12:38:05;;;;;;;3.47;1.58;;;;;;;;;;5049287;28;20475;-75
2022/08/30 12:40:33;;;;;;;4.50;1.52;;;;;;;;;;5067468;28;20055;-75
2022/08/30 12:43:03;;;;;;;3.42;1.67;;;;;;;;;;5067703;28;20032;-75
2022/08/30 12:45:41;;;;;;;2.05;1.83;;;;;;;;;;5067135;28;20060;-75
2022/08/30 12:48:11;;;;;;;9.20;1.50;;;;;;;;;;5067654;28;20029;-75
2022/08/30 12:50:42;;;;;;;4.20;1.70;;;;;;;;;;5066954;28;20741;-74
2022/08/30 12:53:12;;;;;;;1.08;0.73;;;;;;;;;;5067454;28;20111;-76
2022/08/30 12:55:55;;;;;;;4.18;1.88;;;;;;;;;;5067711;28;20059;-74
2022/08/30 12:58:40;;;;;;;2.63;1.55;;;;;;;;;;5067791;28;20032;-76
2022/08/30 13:01:25;;;;;;;6.90;4.35;;;;;;;;;;5067455;28;20480;-75
2022/08/30 13:03:55;;;;;;;1.30;0.85;;;;;;;;;;5067007;28;20052;-75
2022/08/30 13:06:54;;;;;;;0.75;0.75;;;;;;;;;;5067175;28;20178;-81
2022/08/30 13:09:22;;;;;;;2.40;1.58;;;;;;;;;;5012433;28;20567;-75
2022/08/30 13:11:49;;;;;;;1.85;1.45;;;;;;;;;;5065667;28;20475;-77
2022/08/30 13:14:18;;;;;;;3.50;1.55;;;;;;;;;;5046016;28;20033;-73
2022/08/30 13:16:43;;;;;;;4.20;1.40;;;;;;;;;;5046707;28;20082;-75
2022/08/30 13:19:24;;;;;;;1.85;1.17;;;;;;;;;;5047412;28;20353;-74
2022/08/30 13:21:50;;;;;;;5.65;2.15;;;;;;;;;;5047338;28;20033;-74
2022/08/30 13:24:16;;;;;;;3.25;2.20;;;;;;;;;;5045619;28;20397;-76
2022/08/30 13:26:43;;;;;;;1.40;1.08;;;;;;;;;;5035622;28;20065;-75
2022/08/30 13:29:20;;;;;;;2.95;2.13;;;;;;;;;;5034287;28;20040;-75
2022/08/30 13:31:46;;;;;;;2.88;1.40;;;;;;;;;;5035287;28;20041;-79
2022/08/30 13:34:11;;;;;;;3.55;1.42;;;;;;;;;;5047128;28;20082;-74
2022/08/30 13:36:42;;;;;;;2.92;1.50;;;;;;;;;;5046730;28;20033;-75
2022/08/30 13:39:08;;;;;;;2.92;2.00;;;;;;;;;;5046334;28;20030;-76
2022/08/30 13:41:33;;;;;;;5.88;2.45;;;;;;;;;;5048724;28;20055;-79
2022/08/30 13:43:59;;;;;;;1.70;1.42;;;;;;;;;;5050899;28;20029;-76
2022/08/30 13:46:25;;;;;;;2.78;1.80;;;;;;;;;;5050684;28;20500;-75
2022/08/30 13:48:54;;;;;;;2.55;2.00;;;;;;;;;;5050917;28;20432;-76
2022/08/30 13:51:19;;;;;;;2.30;2.03;;;;;;;;;;5050387;28;20031;-76
2022/08/30 13:53:44;;;;;;;2.92;1.63;;;;;;;;;;5050678;28;20392;-74
2022/08/30 13:56:10;;;;;;;4.10;2.40;;;;;;;;;;5050895;28;20032;-76
2022/08/30 13:58:35;;;;;;;3.05;2.20;;;;;;;;;;5050025;28;20033;-78
2022/08/30 14:01:01;;;;;;;3.40;1.90;;;;;;;;;;5050775;28;20369;-76
2022/08/30 14:03:26;;;;;;;3.42;1.60;;;;;;;;;;5050117;28;20043;-77
2022/08/30 14:05:52;;;;;;;1.23;1.05;;;;;;;;;;5032599;28;20045;-77
2022/08/30 14:08:19;;;;;;;4.90;2.38;;;;;;;;;;5032695;28;20033;-76
2022/08/30 14:10:44;;;;;;;1.17;1.08;;;;;;;;;;5050321;28;20024;-77
2022/08/30 14:13:10;;;;;;;1.88;1.48;;;;;;;;;;5050550;28;20032;-76
2022/08/30 14:15:36;;;;;;;2.15;1.50;;;;;;;;;;5032008;28;20068;-78
2022/08/30 14:18:03;;;;;;;2.45;2.08;;;;;;;;;;5050356;28;20043;-76
2022/08/30 14:20:28;;;;;;;2.22;1.30;;;;;;;;;;5050114;28;20028;-76
2022/08/30 14:22:53;;;;;;;1.40;1.27;;;;;;;;;;5050197;28;20037;-76
2022/08/30 14:25:19;;;;;;;0.60;0.60;;;;;;;;;;5049805;28;20021;-76
2022/08/30 14:27:44;;;;;;;0.73;0.73;;;;;;;;;;5049678;28;20024;-77
2022/08/30 14:30:10;;;;;;;0.90;0.90;;;;;;;;;;5050040;28;20053;-76
2022/08/30 14:32:35;;;;;;;0.80;0.80;;;;;;;;;;5049974;28;20024;-77
2022/08/30 14:35:01;;;;;;;2.55;1.23;;;;;;;;;;5050009;28;20029;-75
2022/08/30 14:37:26;;;;;;;1.25;1.15;;;;;;;;;;5049900;28;20025;-78
2022/08/30 14:39:52;;;;;;;1.60;1.35;;;;;;;;;;5049586;28;20028;-77
2022/08/30 14:42:18;;;;;;;2.83;1.63;;;;;;;;;;5049610;28;20492;-76
2022/08/30 14:44:44;;;;;;;2.10;1.33;;;;;;;;;;5049318;28;20037;-76
2022/08/30 14:47:10;;;;;;;0.68;0.63;;;;;;;;;;5049667;28;20037;-77
2022/08/30 14:49:35;;;;;;;2.05;1.10;;;;;;;;;;5051471;28;20079;-73
2022/08/30 14:52:01;;;;;;;2.95;1.55;;;;;;;;;;5051293;28;20025;-76
2022/08/30 14:54:27;;;;;;;3.95;1.30;;;;;;;;;;5051294;28;20108;-76
2022/08/30 14:56:53;;;;;;;1.55;1.23;;;;;;;;;;5030831;28;20033;-73